Time;durP1;ratioP1;P1;durP2;ratioP2;P2;SDS_P1;SDS_P2;PMS_P1;PMS_P2;Temp;Humidity;BMP_temperature;BMP_pressure;BME280_temperature;BME280_humidity;BME280_pressure;Samples;Min_cycle;Max_cycle;Signal;HPM_P1;HPM_P2
2023/12/31 00:00:34;;;;;;;3.33;2.27;;;7.60;99.90;;;;;;4881818;29;20432;-79
2023/12/31 00:03:03;;;;;;;3.53;2.10;;;7.50;99.90;;;;;;4877839;29;20468;-74
2023/12/31 00:05:28;;;;;;;3.10;1.83;;;7.50;99.90;;;;;;4886556;29;20459;-81
2023/12/31 00:07:54;;;;;;;2.90;2.50;;;7.40;99.90;;;;;;4880111;29;20468;-75
2023/12/31 00:10:20;;;;;;;3.53;2.60;;;7.40;99.90;;;;;;4890477;29;20212;-76
2023/12/31 00:12:47;;;;;;;4.30;2.47;;;7.40;99.90;;;;;;4898983;29;20203;-77
2023/12/31 00:15:13;;;;;;;6.43;2.70;;;7.30;99.90;;;;;;4900086;29;20489;-78
2023/12/31 00:17:39;;;;;;;4.17;2.97;;;7.30;99.90;;;;;;4897539;29;20440;-76
2023/12/31 00:20:05;;;;;;;3.50;2.87;;;7.30;99.90;;;;;;4901029;29;20443;-75
2023/12/31 00:22:31;;;;;;;4.20;2.60;;;7.20;99.90;;;;;;4907333;29;20260;-76
2023/12/31 00:24:57;;;;;;;2.87;2.00;;;7.20;99.90;;;;;;4898669;29;20446;-76
2023/12/31 00:27:22;;;;;;;4.77;2.40;;;7.20;99.90;;;;;;4902608;29;20207;-77
2023/12/31 00:29:48;;;;;;;3.50;3.03;;;7.20;99.90;;;;;;4895122;29;20263;-75
2023/12/31 00:32:15;;;;;;;4.07;2.70;;;7.20;99.90;;;;;;4893378;29;20244;-76
2023/12/31 00:34:41;;;;;;;4.10;3.00;;;7.20;99.90;;;;;;4907470;29;20447;-74
2023/12/31 00:37:07;;;;;;;3.97;2.73;;;7.20;99.90;;;;;;4885167;29;20438;-76
2023/12/31 00:39:33;;;;;;;3.80;2.60;;;7.30;99.90;;;;;;4884499;29;20592;-78
2023/12/31 00:41:58;;;;;;;3.90;2.60;;;7.30;99.90;;;;;;4877798;29;20196;-77
2023/12/31 00:44:24;;;;;;;5.63;3.00;;;7.40;99.90;;;;;;4891779;29;20278;-78
2023/12/31 00:46:50;;;;;;;4.97;3.20;;;7.40;99.90;;;;;;4898775;29;20347;-75
2023/12/31 00:49:16;;;;;;;5.53;2.90;;;7.40;99.90;;;;;;4892193;29;20199;-76
2023/12/31 00:51:42;;;;;;;4.07;3.07;;;7.40;99.90;;;;;;4884536;29;20455;-74
2023/12/31 00:54:07;;;;;;;4.20;2.67;;;7.40;99.90;;;;;;4900836;29;20212;-75
2023/12/31 00:56:33;;;;;;;3.13;2.50;;;7.40;99.90;;;;;;4901359;29;20212;-78
2023/12/31 00:58:58;;;;;;;2.00;1.70;;;7.40;99.90;;;;;;4892330;29;20191;-75
2023/12/31 01:01:24;;;;;;;3.27;2.90;;;7.40;99.90;;;;;;4900244;29;20561;-73
2023/12/31 01:03:50;;;;;;;3.47;2.93;;;7.40;99.90;;;;;;4906197;29;20210;-75
2023/12/31 01:06:16;;;;;;;4.80;2.47;;;7.50;99.90;;;;;;4908823;29;20249;-74
2023/12/31 01:08:42;;;;;;;4.03;3.10;;;7.60;99.90;;;;;;4901408;29;20444;-75
2023/12/31 01:11:07;;;;;;;3.70;2.50;;;7.70;99.90;;;;;;4898277;29;20180;-74
2023/12/31 01:13:33;;;;;;;4.23;2.67;;;7.70;99.90;;;;;;4893099;29;20184;-74
2023/12/31 01:16:00;;;;;;;3.10;2.60;;;7.80;99.90;;;;;;4895338;29;20474;-74
2023/12/31 01:18:25;;;;;;;4.20;2.60;;;7.80;99.90;;;;;;4896472;29;20526;-74
2023/12/31 01:20:51;;;;;;;4.03;2.90;;;7.80;99.90;;;;;;4878868;29;20195;-76
2023/12/31 01:23:17;;;;;;;3.20;2.53;;;7.80;99.90;;;;;;4897947;29;20473;-74
2023/12/31 01:25:44;;;;;;;4.40;3.10;;;7.80;99.90;;;;;;4879432;29;20269;-75
2023/12/31 01:28:10;;;;;;;5.43;3.10;;;7.80;99.90;;;;;;4897566;29;20440;-74
2023/12/31 01:30:35;;;;;;;3.60;3.10;;;7.70;99.90;;;;;;4893201;29;20450;-74
2023/12/31 01:33:01;;;;;;;2.60;2.40;;;7.60;99.90;;;;;;4883330;29;20442;-74
2023/12/31 01:35:27;;;;;;;6.20;3.20;;;7.60;99.90;;;;;;4896278;29;20210;-76
2023/12/31 01:37:53;;;;;;;2.83;2.40;;;7.50;99.90;;;;;;4900327;29;20194;-74
2023/12/31 01:40:18;;;;;;;3.47;2.80;;;7.50;99.90;;;;;;4886292;29;20446;-74
2023/12/31 01:42:44;;;;;;;3.73;2.17;;;7.50;99.90;;;;;;4902846;29;20206;-75
2023/12/31 01:45:10;;;;;;;3.00;2.47;;;7.50;99.90;;;;;;4894057;29;20512;-75
2023/12/31 01:47:38;;;;;;;3.67;2.37;;;7.50;99.90;;;;;;4874040;29;20471;-74
2023/12/31 01:50:04;;;;;;;4.70;3.00;;;7.50;99.90;;;;;;4878779;29;20183;-75
2023/12/31 01:52:32;;;;;;;7.60;3.20;;;7.50;99.90;;;;;;4875895;29;20420;-75
2023/12/31 01:55:00;;;;;;;4.53;2.80;;;7.50;99.90;;;;;;4893065;29;20437;-74
2023/12/31 01:57:29;;;;;;;4.33;3.57;;;7.50;99.90;;;;;;4899377;29;20424;-74
2023/12/31 02:00:03;;;;;;;4.50;2.97;;;7.50;99.90;;;;;;4898325;29;20431;-74
2023/12/31 02:02:39;;;;;;;3.50;2.50;;;7.50;99.90;;;;;;4893909;29;20420;-74
2023/12/31 02:05:05;;;;;;;6.30;3.50;;;7.50;99.90;;;;;;4888578;29;20508;-74
2023/12/31 02:07:30;;;;;;;4.80;3.10;;;7.60;99.90;;;;;;4883990;29;20579;-73
2023/12/31 02:09:57;;;;;;;5.10;3.00;;;7.60;99.90;;;;;;4889556;29;20428;-74
2023/12/31 02:12:23;;;;;;;5.37;2.87;;;7.60;99.90;;;;;;4893048;29;20416;-74
2023/12/31 02:14:50;;;;;;;4.27;2.90;;;7.60;99.90;;;;;;4901022;29;20256;-74
2023/12/31 02:17:16;;;;;;;3.40;2.97;;;7.70;99.90;;;;;;4879655;29;20451;-75
2023/12/31 02:19:41;;;;;;;3.07;2.50;;;7.70;99.90;;;;;;4868342;29;20868;-74
2023/12/31 02:22:08;;;;;;;4.47;3.20;;;7.70;99.90;;;;;;4901897;29;20219;-74
2023/12/31 02:24:42;;;;;;;4.63;3.23;;;7.70;99.90;;;;;;4897032;29;20204;-74
2023/12/31 02:27:07;;;;;;;4.23;3.00;;;7.70;99.90;;;;;;4895815;29;20899;-72
2023/12/31 02:29:33;;;;;;;3.47;2.80;;;7.70;99.90;;;;;;4896932;29;20419;-74
2023/12/31 02:31:58;;;;;;;3.20;2.87;;;7.70;99.90;;;;;;4896641;29;20183;-75
2023/12/31 02:34:26;;;;;;;6.40;2.73;;;7.80;99.90;;;;;;4901422;29;20182;-75
2023/12/31 02:36:52;;;;;;;3.97;2.70;;;7.80;99.90;;;;;;4899935;29;20447;-72
2023/12/31 02:39:17;;;;;;;3.80;2.93;;;7.80;99.90;;;;;;4902253;29;20176;-73
2023/12/31 02:41:43;;;;;;;5.30;3.60;;;7.80;99.90;;;;;;4891074;29;20254;-73
2023/12/31 02:44:09;;;;;;;3.43;3.03;;;7.80;99.90;;;;;;4885110;29;20191;-74
2023/12/31 02:46:34;;;;;;;3.23;2.93;;;7.90;99.90;;;;;;4906441;29;20219;-75
2023/12/31 02:49:00;;;;;;;2.77;2.40;;;7.90;99.90;;;;;;4900970;29;20198;-74
2023/12/31 02:51:25;;;;;;;3.87;2.60;;;7.90;99.90;;;;;;4901445;29;20278;-73
2023/12/31 02:53:51;;;;;;;3.57;2.90;;;7.90;99.90;;;;;;4902874;29;20214;-74
2023/12/31 02:56:16;;;;;;;3.90;2.50;;;7.90;99.90;;;;;;4899687;29;20222;-73
2023/12/31 02:58:42;;;;;;;4.17;2.80;;;7.90;99.90;;;;;;4900731;29;20195;-74
2023/12/31 03:01:07;;;;;;;4.50;2.70;;;8.00;99.90;;;;;;4883329;29;20200;-74
2023/12/31 03:03:33;;;;;;;5.53;2.50;;;8.00;99.90;;;;;;4896673;29;20199;-73
2023/12/31 03:05:59;;;;;;;3.97;2.40;;;8.00;99.90;;;;;;4895950;29;20485;-74
2023/12/31 03:08:24;;;;;;;3.67;2.90;;;8.00;99.90;;;;;;4882125;29;20203;-74
2023/12/31 03:10:50;;;;;;;3.37;2.27;;;8.00;99.90;;;;;;4897079;29;20191;-74
2023/12/31 03:13:16;;;;;;;5.30;2.90;;;8.10;99.90;;;;;;4903777;29;20186;-74
2023/12/31 03:15:42;;;;;;;3.33;2.87;;;8.20;99.90;;;;;;4901801;29;20227;-73
2023/12/31 03:18:07;;;;;;;3.43;2.57;;;8.20;99.90;;;;;;4897828;29;20439;-75
2023/12/31 03:20:33;;;;;;;4.00;3.03;;;8.30;99.90;;;;;;4895072;29;20191;-73
2023/12/31 03:22:59;;;;;;;4.87;2.80;;;8.30;99.90;;;;;;4894410;29;20270;-76
2023/12/31 03:25:24;;;;;;;3.53;2.80;;;8.30;99.90;;;;;;4894634;29;20460;-72
2023/12/31 03:27:50;;;;;;;4.33;3.23;;;8.30;99.90;;;;;;4905553;29;20210;-73
2023/12/31 03:30:16;;;;;;;5.70;2.70;;;8.30;99.90;;;;;;4903176;29;20184;-73
2023/12/31 03:32:42;;;;;;;5.20;2.40;;;8.30;99.90;;;;;;4897821;29;20243;-74
2023/12/31 03:35:08;;;;;;;6.03;2.97;;;8.40;99.90;;;;;;4874291;29;20926;-72
2023/12/31 03:37:34;;;;;;;4.53;2.70;;;8.40;99.90;;;;;;4892381;29;20425;-73
2023/12/31 03:40:00;;;;;;;3.87;2.30;;;8.30;99.90;;;;;;4898183;29;20203;-73
2023/12/31 03:42:25;;;;;;;4.77;2.60;;;8.30;99.90;;;;;;4896796;29;20432;-73
2023/12/31 03:44:51;;;;;;;3.73;2.80;;;8.30;99.90;;;;;;4900969;29;20199;-73
2023/12/31 03:47:16;;;;;;;3.10;2.47;;;8.30;99.90;;;;;;4905668;29;20325;-74
2023/12/31 03:49:42;;;;;;;3.43;2.90;;;8.30;99.90;;;;;;4905245;29;20215;-73
2023/12/31 03:52:10;;;;;;;4.67;2.67;;;8.30;99.90;;;;;;4895557;29;20407;-75
2023/12/31 03:54:40;;;;;;;2.63;2.20;;;8.30;99.90;;;;;;4909647;29;20982;-74
2023/12/31 03:57:07;;;;;;;2.77;2.47;;;8.30;99.90;;;;;;4913964;29;20428;-77
2023/12/31 03:59:32;;;;;;;3.83;2.47;;;8.30;99.90;;;;;;4891360;29;20436;-74
2023/12/31 04:01:58;;;;;;;6.07;2.07;;;8.30;99.90;;;;;;4900524;29;20238;-74
2023/12/31 04:04:25;;;;;;;3.80;2.63;;;8.40;99.90;;;;;;4897192;29;20204;-73
2023/12/31 04:06:52;;;;;;;2.93;2.40;;;8.40;99.90;;;;;;4897132;29;20215;-73
2023/12/31 04:09:17;;;;;;;3.17;2.30;;;8.50;99.90;;;;;;4896196;29;20440;-73
2023/12/31 04:11:43;;;;;;;3.43;2.00;;;8.50;99.90;;;;;;4900111;29;20222;-75
2023/12/31 04:14:09;;;;;;;3.77;2.20;;;8.50;99.90;;;;;;4875335;29;20187;-74
2023/12/31 04:16:34;;;;;;;2.70;2.17;;;8.50;99.90;;;;;;4896473;29;20475;-74
2023/12/31 04:19:00;;;;;;;3.17;2.20;;;8.40;99.90;;;;;;4890172;29;20283;-74
2023/12/31 04:21:25;;;;;;;4.20;1.67;;;8.40;99.90;;;;;;4891153;29;20206;-73
2023/12/31 04:23:51;;;;;;;2.97;2.20;;;8.30;99.90;;;;;;4903204;29;20206;-74
2023/12/31 04:26:16;;;;;;;2.40;1.73;;;8.30;99.90;;;;;;4888022;29;20245;-73
2023/12/31 04:28:42;;;;;;;3.67;2.20;;;8.30;99.90;;;;;;4898922;29;20179;-73
2023/12/31 04:31:08;;;;;;;4.13;2.50;;;8.30;99.90;;;;;;4891997;29;20235;-73
2023/12/31 04:33:35;;;;;;;3.50;2.77;;;8.30;99.90;;;;;;4893169;29;20191;-74
2023/12/31 04:36:04;;;;;;;3.60;2.50;;;8.30;99.90;;;;;;4898728;29;20504;-73
2023/12/31 04:38:31;;;;;;;3.50;2.60;;;8.30;99.90;;;;;;4887448;29;20431;-74
2023/12/31 04:40:57;;;;;;;3.50;2.20;;;8.30;99.90;;;;;;4903827;29;20432;-74
2023/12/31 04:43:23;;;;;;;2.73;2.17;;;8.30;99.90;;;;;;4898433;29;20428;-76
2023/12/31 04:45:48;;;;;;;2.27;1.97;;;8.30;99.90;;;;;;4894881;29;20199;-73
2023/12/31 04:48:14;;;;;;;3.83;2.03;;;8.30;99.90;;;;;;4902066;29;20223;-73
2023/12/31 04:50:39;;;;;;;4.43;2.50;;;8.20;99.90;;;;;;4873563;29;20192;-72
2023/12/31 04:53:05;;;;;;;4.87;2.13;;;8.20;99.90;;;;;;4872697;29;20191;-73
2023/12/31 04:55:32;;;;;;;2.83;2.20;;;8.20;99.90;;;;;;4898646;29;20207;-73
2023/12/31 04:57:58;;;;;;;4.60;2.30;;;8.20;99.90;;;;;;4898297;29;20457;-74
2023/12/31 05:00:24;;;;;;;2.97;2.00;;;8.20;99.90;;;;;;4885374;29;20484;-72
2023/12/31 05:02:49;;;;;;;3.60;2.33;;;8.20;99.90;;;;;;4895662;29;20615;-73
2023/12/31 05:05:15;;;;;;;4.97;1.73;;;8.30;99.90;;;;;;4887117;29;20514;-73
2023/12/31 05:07:40;;;;;;;5.87;2.23;;;8.30;99.90;;;;;;4895985;29;20220;-73
2023/12/31 05:10:06;;;;;;;3.20;2.10;;;8.30;99.90;;;;;;4890309;29;20191;-73
2023/12/31 05:12:32;;;;;;;2.43;1.87;;;8.30;99.90;;;;;;4888797;29;20184;-72
2023/12/31 05:14:57;;;;;;;4.03;1.90;;;8.20;99.90;;;;;;4890301;29;20483;-72
2023/12/31 05:17:23;;;;;;;2.20;1.97;;;8.20;99.90;;;;;;4878138;29;20214;-73
2023/12/31 05:19:48;;;;;;;2.97;1.63;;;8.20;99.90;;;;;;4892103;29;20211;-73
2023/12/31 05:22:14;;;;;;;3.33;1.70;;;8.20;99.90;;;;;;4894063;29;20251;-73
2023/12/31 05:24:40;;;;;;;5.17;2.17;;;8.30;99.90;;;;;;4898477;29;20206;-75
2023/12/31 05:27:05;;;;;;;3.93;2.23;;;8.30;99.90;;;;;;4889239;29;20329;-72
2023/12/31 05:29:31;;;;;;;2.20;2.00;;;8.30;99.90;;;;;;4880407;29;20202;-74
2023/12/31 05:31:56;;;;;;;3.17;1.83;;;8.40;99.90;;;;;;4901165;29;20199;-74
2023/12/31 05:34:22;;;;;;;2.40;1.63;;;8.40;99.90;;;;;;4905291;29;20183;-75
2023/12/31 05:36:48;;;;;;;2.13;1.70;;;8.50;99.90;;;;;;4884259;29;20226;-74
2023/12/31 05:39:14;;;;;;;2.90;2.00;;;8.50;99.90;;;;;;4899494;29;20289;-74
2023/12/31 05:41:40;;;;;;;2.57;2.10;;;8.50;99.90;;;;;;4902125;29;20439;-75
2023/12/31 05:44:05;;;;;;;3.90;2.20;;;8.50;99.90;;;;;;4893894;29;20429;-75
2023/12/31 05:46:31;;;;;;;2.70;2.13;;;8.50;99.90;;;;;;4902098;29;20219;-74
2023/12/31 05:48:56;;;;;;;2.70;1.90;;;8.50;99.90;;;;;;4898269;29;20198;-73
2023/12/31 05:51:22;;;;;;;2.40;2.00;;;8.50;99.90;;;;;;4898819;29;20226;-72
2023/12/31 05:53:48;;;;;;;4.17;2.30;;;8.50;99.90;;;;;;4901251;29;20195;-74
2023/12/31 05:56:14;;;;;;;1.70;1.43;;;8.60;99.90;;;;;;4893091;29;20215;-73
2023/12/31 05:58:42;;;;;;;4.10;1.90;;;8.50;99.90;;;;;;4897161;29;20588;-73
2023/12/31 06:01:08;;;;;;;3.77;1.90;;;8.50;99.90;;;;;;4898294;29;20288;-72
2023/12/31 06:03:33;;;;;;;2.97;1.57;;;8.50;99.90;;;;;;4904125;29;20412;-72
2023/12/31 06:05:59;;;;;;;2.00;1.70;;;8.60;99.90;;;;;;4901852;29;20929;-73
2023/12/31 06:08:25;;;;;;;2.40;1.47;;;8.60;99.90;;;;;;4886542;29;20343;-73
2023/12/31 06:10:51;;;;;;;4.13;2.10;;;8.50;99.90;;;;;;4898753;29;20846;-72
2023/12/31 06:13:16;;;;;;;5.13;1.77;;;8.60;99.90;;;;;;4901838;29;20188;-73
2023/12/31 06:15:42;;;;;;;2.20;1.70;;;8.60;99.90;;;;;;4897724;29;20228;-72
2023/12/31 06:18:09;;;;;;;3.73;2.07;;;8.60;99.90;;;;;;4893819;29;20199;-74
2023/12/31 06:20:35;;;;;;;2.50;1.83;;;8.50;99.90;;;;;;4895435;29;20530;-74
2023/12/31 06:23:00;;;;;;;2.40;1.93;;;8.50;99.90;;;;;;4892046;29;20411;-71
2023/12/31 06:25:26;;;;;;;2.30;1.63;;;8.50;99.90;;;;;;4893847;29;20250;-73
2023/12/31 06:27:52;;;;;;;2.80;1.73;;;8.50;99.90;;;;;;4899881;29;20269;-74
2023/12/31 06:30:18;;;;;;;2.17;1.93;;;8.60;99.90;;;;;;4896319;29;20662;-74
2023/12/31 06:32:43;;;;;;;2.40;1.87;;;8.60;99.90;;;;;;4893611;29;20206;-76
2023/12/31 06:35:09;;;;;;;3.27;1.73;;;8.60;99.90;;;;;;4895256;29;20460;-73
2023/12/31 06:37:34;;;;;;;2.87;1.73;;;8.60;99.90;;;;;;4898494;29;20184;-74
2023/12/31 06:40:00;;;;;;;1.63;1.40;;;8.60;99.90;;;;;;4899367;29;20556;-73
2023/12/31 06:42:25;;;;;;;1.70;1.60;;;8.70;99.90;;;;;;4894305;29;20563;-72
2023/12/31 06:44:51;;;;;;;3.63;1.50;;;8.70;99.90;;;;;;4896248;29;20191;-73
2023/12/31 06:47:16;;;;;;;2.53;2.10;;;8.70;99.90;;;;;;4895836;29;20224;-73
2023/12/31 06:49:42;;;;;;;2.00;1.60;;;8.70;99.90;;;;;;4867593;29;20243;-72
2023/12/31 06:52:07;;;;;;;2.17;1.73;;;8.70;99.90;;;;;;4897343;29;20187;-72
2023/12/31 06:54:33;;;;;;;1.80;1.60;;;8.70;99.90;;;;;;4905831;29;20271;-74
2023/12/31 06:56:58;;;;;;;2.60;1.90;;;8.70;99.90;;;;;;4880438;29;20223;-73
2023/12/31 06:59:24;;;;;;;2.13;1.50;;;8.70;99.90;;;;;;4878217;29;20208;-72
2023/12/31 07:01:50;;;;;;;2.57;1.53;;;8.70;99.90;;;;;;4897169;29;20576;-75
2023/12/31 07:04:15;;;;;;;2.40;1.80;;;8.80;99.90;;;;;;4899453;29;20243;-73
2023/12/31 07:06:41;;;;;;;5.43;2.17;;;8.80;99.90;;;;;;4895744;29;20218;-73
2023/12/31 07:09:07;;;;;;;3.80;1.83;;;8.80;99.90;;;;;;4897109;29;20424;-73
2023/12/31 07:11:32;;;;;;;2.43;1.60;;;8.80;99.90;;;;;;4892555;29;20684;-72
2023/12/31 07:13:58;;;;;;;2.90;1.77;;;8.70;99.90;;;;;;4887926;29;20454;-73
2023/12/31 07:16:23;;;;;;;2.50;1.63;;;8.80;99.90;;;;;;4889160;29;20261;-73
2023/12/31 07:18:49;;;;;;;2.80;1.80;;;8.80;99.90;;;;;;4892316;29;20202;-73
2023/12/31 07:21:24;;;;;;;2.10;1.70;;;8.80;99.90;;;;;;4894790;29;20593;-73
2023/12/31 07:23:49;;;;;;;3.03;1.90;;;8.80;99.90;;;;;;4893169;29;20195;-72
2023/12/31 07:26:25;;;;;;;2.63;2.10;;;8.80;99.90;;;;;;4895209;29;20954;-74
2023/12/31 07:28:51;;;;;;;2.13;1.63;;;8.80;99.90;;;;;;4889895;29;20573;-74
2023/12/31 07:31:17;;;;;;;2.23;1.80;;;8.70;99.90;;;;;;4892815;29;20491;-74
2023/12/31 07:33:43;;;;;;;2.67;1.40;;;8.70;99.90;;;;;;4893331;29;20518;-73
2023/12/31 07:36:10;;;;;;;2.43;1.60;;;8.70;99.90;;;;;;4895138;29;20216;-72
2023/12/31 07:38:35;;;;;;;1.73;1.63;;;8.70;99.90;;;;;;4894214;29;20420;-74
2023/12/31 07:41:01;;;;;;;2.50;1.90;;;8.60;99.90;;;;;;4896836;29;20631;-74
2023/12/31 07:43:26;;;;;;;2.90;1.73;;;8.50;99.90;;;;;;4902247;29;20187;-73
2023/12/31 07:45:52;;;;;;;2.27;1.60;;;8.40;99.90;;;;;;4896979;29;20553;-73
2023/12/31 07:48:18;;;;;;;2.60;1.80;;;8.40;99.90;;;;;;4899565;29;20567;-74
2023/12/31 07:50:43;;;;;;;1.97;1.77;;;8.40;99.90;;;;;;4897046;29;20211;-73
2023/12/31 07:53:09;;;;;;;2.47;1.63;;;8.40;99.90;;;;;;4903538;29;20239;-73
2023/12/31 07:55:34;;;;;;;2.57;2.07;;;8.40;99.90;;;;;;4892640;29;20232;-73
2023/12/31 07:58:00;;;;;;;6.20;2.00;;;8.40;99.90;;;;;;4898200;29;20183;-73
2023/12/31 08:00:26;;;;;;;3.03;1.63;;;8.40;99.90;;;;;;4899668;29;20195;-74
2023/12/31 08:02:51;;;;;;;2.23;1.40;;;8.50;99.90;;;;;;4891502;29;20278;-73
2023/12/31 08:05:17;;;;;;;2.53;1.70;;;8.50;99.90;;;;;;4890671;29;20223;-74
2023/12/31 08:07:43;;;;;;;2.57;2.37;;;8.60;99.90;;;;;;4886288;29;20227;-73
2023/12/31 08:10:11;;;;;;;2.70;2.10;;;8.60;99.90;;;;;;4895934;29;20190;-73
2023/12/31 08:12:37;;;;;;;2.80;1.60;;;8.70;99.90;;;;;;4900247;29;20215;-74
2023/12/31 08:15:02;;;;;;;2.10;1.70;;;8.70;99.90;;;;;;4899498;29;20971;-73
2023/12/31 08:17:28;;;;;;;2.77;2.03;;;8.80;99.90;;;;;;4873247;29;20236;-75
2023/12/31 08:19:54;;;;;;;2.10;1.80;;;8.80;99.90;;;;;;4889122;29;20443;-74
2023/12/31 08:22:19;;;;;;;2.10;1.60;;;8.80;99.90;;;;;;4882449;29;20180;-74
2023/12/31 08:24:45;;;;;;;2.20;1.93;;;8.80;99.90;;;;;;4889213;29;20485;-74
2023/12/31 08:27:11;;;;;;;11.30;3.43;;;8.80;99.90;;;;;;4891703;29;20655;-75
2023/12/31 08:29:40;;;;;;;5.20;1.60;;;8.90;99.90;;;;;;4893315;29;20436;-73
2023/12/31 08:32:05;;;;;;;3.43;2.03;;;8.90;99.90;;;;;;4894200;29;20219;-75
2023/12/31 08:34:31;;;;;;;2.20;1.70;;;9.00;99.90;;;;;;4900729;29;20434;-74
2023/12/31 08:36:56;;;;;;;2.53;1.70;;;9.00;99.90;;;;;;4881896;29;20224;-74
2023/12/31 08:39:22;;;;;;;4.30;2.13;;;9.10;99.90;;;;;;4899710;29;20195;-75
2023/12/31 08:41:48;;;;;;;3.33;2.00;;;9.20;99.90;;;;;;4900093;29;20191;-75
2023/12/31 08:44:13;;;;;;;3.10;2.00;;;9.20;99.90;;;;;;4873151;29;20199;-73
2023/12/31 08:46:39;;;;;;;3.00;2.20;;;9.30;99.90;;;;;;4897504;29;20279;-72
2023/12/31 08:49:06;;;;;;;2.53;2.07;;;9.40;99.90;;;;;;4896720;29;20204;-73
2023/12/31 08:51:32;;;;;;;2.20;1.60;;;9.50;99.90;;;;;;4893340;29;20180;-75
2023/12/31 08:53:58;;;;;;;2.73;2.40;;;9.50;99.90;;;;;;4896781;29;20728;-75
2023/12/31 08:56:23;;;;;;;3.00;2.27;;;9.60;99.90;;;;;;4872380;29;20200;-73
2023/12/31 08:58:49;;;;;;;3.97;2.63;;;9.60;99.90;;;;;;4888639;29;20335;-75
2023/12/31 09:01:16;;;;;;;3.60;2.30;;;9.60;99.90;;;;;;4890304;29;20379;-73
2023/12/31 09:03:42;;;;;;;2.57;2.20;;;9.60;99.90;;;;;;4889397;29;20180;-73
2023/12/31 09:06:10;;;;;;;4.00;2.40;;;9.70;99.90;;;;;;4883349;29;20474;-75
2023/12/31 09:08:36;;;;;;;3.10;2.53;;;9.70;99.90;;;;;;4901503;29;20183;-73
2023/12/31 09:11:02;;;;;;;3.97;2.67;;;9.70;99.90;;;;;;4903215;29;20413;-74
2023/12/31 09:13:27;;;;;;;4.27;2.60;;;9.80;99.90;;;;;;4904591;29;20418;-76
2023/12/31 09:15:55;;;;;;;3.80;2.33;;;9.80;99.90;;;;;;4879746;29;20455;-74
2023/12/31 09:18:21;;;;;;;4.60;2.13;;;9.90;99.90;;;;;;4895519;29;20277;-73
2023/12/31 09:20:47;;;;;;;3.57;3.10;;;9.90;99.90;;;;;;4883974;29;20419;-74
2023/12/31 09:23:12;;;;;;;3.63;2.77;;;9.90;99.90;;;;;;4901413;29;20454;-74
2023/12/31 09:25:38;;;;;;;3.20;2.20;;;10.00;99.90;;;;;;4895050;29;20544;-75
2023/12/31 09:28:04;;;;;;;2.77;2.40;;;10.10;99.90;;;;;;4894306;29;20227;-75
2023/12/31 09:30:30;;;;;;;5.87;2.83;;;10.10;99.90;;;;;;4892822;29;20247;-75
2023/12/31 09:32:55;;;;;;;3.03;2.60;;;10.20;99.90;;;;;;4876901;29;20460;-73
2023/12/31 09:35:21;;;;;;;3.63;2.90;;;10.20;99.90;;;;;;4890253;29;20244;-75
2023/12/31 09:37:46;;;;;;;7.60;5.00;;;10.20;99.90;;;;;;4901367;29;20571;-74
2023/12/31 09:40:12;;;;;;;4.00;3.10;;;10.20;99.90;;;;;;4903390;29;20199;-75
2023/12/31 09:42:49;;;;;;;2.93;2.40;;;10.20;99.90;;;;;;4905640;29;20246;-74
2023/12/31 09:45:21;;;;;;;3.67;2.93;;;10.30;99.90;;;;;;4886512;29;20275;-75
2023/12/31 09:47:49;;;;;;;3.60;2.57;;;10.30;99.90;;;;;;4879665;29;20459;-73
2023/12/31 09:50:19;;;;;;;3.77;3.00;;;10.40;99.90;;;;;;4891365;29;20482;-74
2023/12/31 09:52:49;;;;;;;4.10;2.90;;;10.40;99.90;;;;;;4895694;29;20887;-76
2023/12/31 09:55:16;;;;;;;2.70;2.33;;;10.40;99.90;;;;;;4889795;29;20503;-74
2023/12/31 09:57:50;;;;;;;5.13;2.80;;;10.40;99.90;;;;;;4903627;29;20720;-74
2023/12/31 10:00:16;;;;;;;3.30;2.83;;;10.50;99.90;;;;;;4901538;29;20454;-74
2023/12/31 10:02:46;;;;;;;3.07;2.50;;;10.50;99.90;;;;;;4879972;29;20434;-75
2023/12/31 10:05:12;;;;;;;4.70;2.83;;;10.60;99.90;;;;;;4869149;29;20724;-74
2023/12/31 10:07:38;;;;;;;3.80;2.53;;;10.60;99.90;;;;;;4895434;29;20478;-75
2023/12/31 10:10:05;;;;;;;2.50;2.30;;;10.70;99.90;;;;;;4902290;29;20424;-73
2023/12/31 10:12:32;;;;;;;3.50;3.10;;;10.70;99.90;;;;;;4903470;29;20523;-74
2023/12/31 10:14:58;;;;;;;3.30;2.63;;;10.80;99.90;;;;;;4894480;29;20742;-75
2023/12/31 10:17:26;;;;;;;3.17;2.67;;;10.90;99.90;;;;;;4893501;29;20431;-74
2023/12/31 10:19:51;;;;;;;3.30;2.60;;;11.00;99.90;;;;;;4877794;29;20272;-73
2023/12/31 10:22:17;;;;;;;7.70;2.90;;;11.10;99.90;;;;;;4889395;29;20457;-74
2023/12/31 10:24:42;;;;;;;3.70;2.93;;;11.10;99.90;;;;;;4891724;29;20219;-75
2023/12/31 10:27:09;;;;;;;3.37;2.00;;;11.20;99.90;;;;;;4904200;29;20253;-73
2023/12/31 10:29:35;;;;;;;3.50;2.10;;;11.20;99.90;;;;;;4893778;29;20192;-75
2023/12/31 10:32:03;;;;;;;4.97;2.07;;;11.40;99.90;;;;;;4899098;29;20497;-75
2023/12/31 10:34:29;;;;;;;2.53;2.00;;;11.40;99.40;;;;;;4902474;29;20472;-73
2023/12/31 10:37:05;;;;;;;2.47;1.80;;;11.40;99.40;;;;;;4888583;29;20457;-75
2023/12/31 10:39:38;;;;;;;2.33;1.80;;;11.30;98.90;;;;;;4882841;29;20464;-76
2023/12/31 10:42:06;;;;;;;1.30;1.00;;;11.20;97.90;;;;;;4910310;29;20470;-75
2023/12/31 10:44:33;;;;;;;2.87;1.13;;;11.20;97.90;;;;;;4904860;29;20440;-75
2023/12/31 10:47:04;;;;;;;3.73;1.80;;;11.10;97.40;;;;;;4903017;29;20498;-74
2023/12/31 10:49:31;;;;;;;1.50;0.97;;;11.10;97.00;;;;;;4910216;29;20489;-75
2023/12/31 10:52:01;;;;;;;1.70;0.90;;;11.10;96.30;;;;;;4887462;29;20921;-74
2023/12/31 10:54:45;;;;;;;1.50;1.00;;;11.10;95.50;;;;;;4903656;29;20423;-73
2023/12/31 10:57:11;;;;;;;1.50;0.70;;;11.00;95.50;;;;;;4901115;29;20439;-75
2023/12/31 10:59:41;;;;;;;1.73;0.70;;;10.90;94.80;;;;;;4871905;29;20903;-75
2023/12/31 11:02:17;;;;;;;1.77;0.70;;;10.90;95.00;;;;;;4905224;29;20449;-74
2023/12/31 11:04:45;;;;;;;2.80;1.00;;;10.90;94.40;;;;;;4883710;29;20418;-75
2023/12/31 11:07:14;;;;;;;1.20;0.70;;;10.90;94.50;;;;;;4885659;29;20563;-75
2023/12/31 11:09:42;;;;;;;3.60;1.07;;;10.80;94.50;;;;;;4903324;29;20442;-76
2023/12/31 11:12:08;;;;;;;2.00;0.77;;;10.90;94.20;;;;;;4880003;29;20415;-75
2023/12/31 11:14:37;;;;;;;10.23;1.47;;;10.80;94.20;;;;;;4906989;29;20874;-76
2023/12/31 11:17:09;;;;;;;1.47;0.93;;;10.80;94.10;;;;;;4902663;29;20223;-78
2023/12/31 11:19:44;;;;;;;1.50;0.60;;;10.80;94.00;;;;;;4906452;29;20484;-78
2023/12/31 11:22:31;;;;;;;1.20;0.70;;;10.80;93.80;;;;;;4887976;29;20469;-75
2023/12/31 11:24:58;;;;;;;1.77;1.17;;;10.80;93.80;;;;;;4911002;29;20452;-79
2023/12/31 11:27:28;;;;;;;1.30;0.70;;;10.70;93.80;;;;;;4902616;29;20721;-74
2023/12/31 11:29:54;;;;;;;1.27;0.60;;;10.80;93.90;;;;;;4865184;29;20433;-76
2023/12/31 11:32:20;;;;;;;1.20;0.80;;;10.80;93.90;;;;;;4880462;29;20440;-77
2023/12/31 11:34:52;;;;;;;2.40;1.20;;;10.70;93.80;;;;;;4889048;29;20698;-74
2023/12/31 11:37:18;;;;;;;3.43;1.00;;;10.70;94.10;;;;;;4895544;29;20437;-75
2023/12/31 11:39:48;;;;;;;3.30;1.10;;;10.70;94.40;;;;;;4885139;29;20428;-76
2023/12/31 11:42:16;;;;;;;1.37;0.83;;;10.60;94.60;;;;;;4902570;29;20424;-75
2023/12/31 11:44:46;;;;;;;2.73;1.07;;;10.70;94.60;;;;;;4909298;29;20432;-76
2023/12/31 11:47:22;;;;;;;1.20;0.70;;;10.70;94.60;;;;;;4902416;29;20530;-79
2023/12/31 11:49:52;;;;;;;3.63;1.13;;;10.80;94.80;;;;;;4899121;29;20872;-76
2023/12/31 11:52:31;;;;;;;1.40;0.73;;;10.80;94.70;;;;;;4905210;29;20453;-80
2023/12/31 11:55:01;;;;;;;2.00;0.70;;;10.80;94.80;;;;;;4908925;29;20462;-75
2023/12/31 11:57:27;;;;;;;2.13;0.70;;;10.90;94.70;;;;;;4898099;29;20415;-77
2023/12/31 11:59:54;;;;;;;1.20;0.73;;;10.90;94.60;;;;;;4904655;29;20420;-76
2023/12/31 12:02:21;;;;;;;1.20;0.63;;;10.90;94.40;;;;;;4871389;29;20200;-76
2023/12/31 12:04:46;;;;;;;1.70;0.90;;;10.90;94.50;;;;;;4894248;29;20423;-75
2023/12/31 12:07:13;;;;;;;1.90;1.17;;;10.80;94.70;;;;;;4902870;29;20591;-75
2023/12/31 12:09:39;;;;;;;1.67;1.17;;;10.80;95.00;;;;;;4900093;29;20247;-74
2023/12/31 12:12:08;;;;;;;2.33;0.93;;;10.80;95.00;;;;;;4911126;29;20406;-75
2023/12/31 12:14:34;;;;;;;1.43;0.90;;;10.80;95.00;;;;;;4905543;29;20464;-76
2023/12/31 12:17:00;;;;;;;1.87;0.80;;;10.80;94.90;;;;;;4898116;29;20552;-78
2023/12/31 12:19:26;;;;;;;1.10;0.70;;;10.80;95.10;;;;;;4881421;29;20520;-79
2023/12/31 12:21:53;;;;;;;2.23;1.10;;;10.80;95.10;;;;;;4905073;29;20422;-76
2023/12/31 12:24:19;;;;;;;1.43;0.80;;;10.70;95.00;;;;;;4900117;29;20434;-75
2023/12/31 12:26:49;;;;;;;1.97;0.90;;;10.80;94.90;;;;;;4906914;29;20499;-77
2023/12/31 12:29:16;;;;;;;0.80;0.57;;;10.70;94.90;;;;;;4909199;29;20425;-75
2023/12/31 12:31:47;;;;;;;2.13;1.20;;;10.80;95.00;;;;;;4889212;29;20772;-79
2023/12/31 12:34:15;;;;;;;2.10;1.00;;;10.80;95.20;;;;;;4876421;29;20424;-76
2023/12/31 12:36:45;;;;;;;1.70;0.77;;;10.80;95.10;;;;;;4900535;29;20450;-75
2023/12/31 12:39:22;;;;;;;2.37;1.10;;;10.90;94.60;;;;;;4891915;29;20421;-77
2023/12/31 12:41:50;;;;;;;1.40;0.80;;;10.90;94.40;;;;;;4892522;29;20509;-78
2023/12/31 12:44:17;;;;;;;2.10;0.97;;;10.90;93.10;;;;;;4881344;29;20475;-78
2023/12/31 12:46:44;;;;;;;7.80;1.60;;;10.90;92.60;;;;;;4901620;29;20532;-77
2023/12/31 12:49:11;;;;;;;3.10;0.90;;;10.90;91.70;;;;;;4884308;29;20778;-74
2023/12/31 12:51:39;;;;;;;3.23;1.50;;;11.00;91.20;;;;;;4905616;29;20531;-79